createdAt,value
2022-07-29T00:00:21.001Z,1.43
2022-07-29T00:02:48.263Z,1.50
2022-07-29T00:05:15.431Z,1.93
2022-07-29T00:07:42.428Z,2.03
2022-07-29T00:10:09.916Z,1.70
2022-07-29T00:12:37.830Z,1.53
2022-07-29T00:15:05.600Z,1.80
2022-07-29T00:17:32.681Z,1.60
2022-07-29T00:19:59.800Z,1.60
2022-07-29T00:22:26.828Z,1.60
2022-07-29T00:24:53.983Z,1.60
2022-07-29T00:27:38.874Z,1.60
2022-07-29T00:30:06.901Z,1.73
2022-07-29T00:32:34.178Z,1.53
2022-07-29T00:35:20.553Z,2.07
2022-07-29T00:37:47.653Z,1.77
2022-07-29T00:40:14.970Z,1.40
2022-07-29T00:42:51.653Z,1.57
2022-07-29T00:45:19.308Z,1.43
2022-07-29T00:47:46.716Z,1.77
2022-07-29T00:50:15.864Z,1.40
2022-07-29T00:52:44.086Z,1.50
2022-07-29T00:55:13.726Z,1.70
2022-07-29T00:57:42.848Z,1.60
2022-07-29T01:00:14.928Z,1.40
2022-07-29T01:02:42.739Z,1.50
2022-07-29T01:05:11.162Z,1.60
2022-07-29T01:07:40.300Z,1.93
2022-07-29T01:10:09.565Z,1.63
2022-07-29T01:12:38.355Z,1.60
2022-07-29T01:15:07.750Z,1.70
2022-07-29T01:17:52.435Z,1.50
2022-07-29T01:21:06.352Z,1.60
2022-07-29T01:24:12.933Z,1.57
2022-07-29T01:26:50.500Z,1.50
2022-07-29T01:29:38.681Z,2.13
2022-07-29T01:32:27.343Z,1.40
2022-07-29T01:35:18.878Z,1.80
2022-07-29T01:38:15.014Z,1.90
2022-07-29T01:40:54.851Z,1.97
2022-07-29T01:43:43.429Z,1.67
2022-07-29T01:46:15.865Z,1.80
2022-07-29T01:48:46.517Z,1.90
2022-07-29T01:51:30.568Z,1.90
2022-07-29T01:54:09.977Z,2.10
2022-07-29T01:56:37.850Z,1.60
2022-07-29T01:59:06.103Z,1.50
2022-07-29T02:01:34.342Z,1.60
2022-07-29T02:04:04.622Z,1.70
2022-07-29T02:06:34.090Z,1.67
2022-07-29T02:09:01.572Z,1.67
2022-07-29T02:11:28.884Z,1.53
2022-07-29T02:13:58.025Z,2.00
2022-07-29T02:16:26.441Z,1.90
2022-07-29T02:18:54.828Z,1.77
2022-07-29T02:21:26.033Z,1.87
2022-07-29T02:23:56.363Z,1.37
2022-07-29T02:26:24.682Z,1.63
2022-07-29T02:28:53.675Z,1.70
2022-07-29T02:31:23.188Z,1.80
2022-07-29T02:33:51.467Z,2.10
2022-07-29T02:36:18.923Z,1.87
2022-07-29T02:38:54.347Z,1.53
2022-07-29T02:41:27.847Z,1.90
2022-07-29T02:44:03.337Z,1.83
2022-07-29T02:46:32.887Z,1.70
2022-07-29T02:49:23.870Z,1.80
2022-07-29T02:51:59.493Z,1.80
2022-07-29T02:54:43.607Z,1.97
2022-07-29T02:57:22.549Z,1.57
2022-07-29T02:59:51.637Z,1.73
2022-07-29T03:02:18.875Z,1.90
2022-07-29T03:04:46.915Z,1.60
2022-07-29T03:07:15.680Z,1.70
2022-07-29T03:09:43.926Z,1.60
2022-07-29T03:12:11.664Z,1.90
2022-07-29T03:14:39.390Z,1.70
2022-07-29T03:17:06.506Z,1.70
2022-07-29T03:19:33.762Z,1.63
2022-07-29T03:22:02.453Z,1.80
2022-07-29T03:24:36.976Z,2.27
2022-07-29T03:27:05.267Z,1.80
2022-07-29T03:29:33.661Z,1.70
2022-07-29T03:32:07.910Z,1.60
2022-07-29T03:34:36.955Z,1.90
2022-07-29T03:37:03.821Z,1.50
2022-07-29T03:39:35.617Z,1.87
2022-07-29T03:42:03.451Z,1.70
2022-07-29T03:44:32.008Z,1.70
2022-07-29T03:47:00.870Z,1.80
2022-07-29T03:49:28.759Z,1.60
2022-07-29T03:51:55.968Z,2.07
2022-07-29T03:54:23.604Z,1.80
2022-07-29T03:56:53.090Z,1.90
2022-07-29T03:59:21.386Z,2.10
2022-07-29T04:01:49.133Z,2.33
2022-07-29T04:04:17.413Z,1.90
2022-07-29T04:06:48.267Z,1.80
2022-07-29T04:09:15.837Z,1.90
2022-07-29T04:11:57.061Z,1.83
2022-07-29T04:14:33.778Z,1.80
2022-07-29T04:17:02.056Z,2.10
2022-07-29T04:19:29.289Z,2.37
2022-07-29T04:21:56.731Z,2.17
2022-07-29T04:24:23.962Z,2.03
2022-07-29T04:26:51.090Z,1.97
2022-07-29T04:29:18.187Z,1.90
2022-07-29T04:31:45.914Z,2.30
2022-07-29T04:34:13.459Z,1.80
2022-07-29T04:36:40.866Z,2.07
2022-07-29T04:39:08.720Z,2.00
2022-07-29T04:41:35.823Z,7.47
2022-07-29T04:44:06.850Z,3.27
2022-07-29T04:46:35.994Z,2.30
2022-07-29T04:49:04.053Z,1.90
2022-07-29T04:51:31.517Z,1.87
2022-07-29T04:54:00.174Z,2.57
2022-07-29T04:56:28.520Z,1.93
2022-07-29T04:58:55.731Z,2.03
2022-07-29T05:01:22.912Z,2.00
2022-07-29T05:03:49.971Z,2.00
2022-07-29T05:06:17.139Z,2.00
2022-07-29T05:08:44.081Z,2.00
2022-07-29T05:11:12.974Z,2.13
2022-07-29T05:13:45.769Z,1.90
2022-07-29T05:16:14.923Z,4.30
2022-07-29T05:18:43.209Z,17.77
2022-07-29T05:21:11.069Z,12.37
2022-07-29T05:23:38.915Z,4.10
2022-07-29T05:26:05.928Z,3.77
2022-07-29T05:28:36.306Z,2.20
2022-07-29T05:31:03.497Z,2.50
2022-07-29T05:33:36.158Z,2.27
2022-07-29T05:36:08.005Z,2.03
2022-07-29T05:38:36.603Z,1.90
2022-07-29T05:41:04.417Z,2.00
2022-07-29T05:43:32.856Z,1.93
2022-07-29T05:46:00.268Z,2.03
2022-07-29T05:48:27.698Z,2.00
2022-07-29T05:50:56.058Z,1.80
2022-07-29T05:53:23.425Z,1.53
2022-07-29T05:55:50.762Z,1.70
2022-07-29T05:58:24.167Z,1.63
2022-07-29T06:00:51.958Z,2.10
2022-07-29T06:03:18.979Z,1.83
2022-07-29T06:05:48.345Z,2.00
2022-07-29T06:08:15.445Z,1.80
2022-07-29T06:10:42.865Z,1.43
2022-07-29T06:13:10.976Z,1.70
2022-07-29T06:15:38.254Z,1.70
2022-07-29T06:18:08.637Z,1.90
2022-07-29T06:20:36.194Z,2.00
2022-07-29T06:23:05.489Z,1.87
2022-07-29T06:25:35.911Z,1.60
2022-07-29T06:28:03.038Z,2.23
2022-07-29T06:30:30.502Z,2.37
2022-07-29T06:33:05.903Z,2.40
2022-07-29T06:35:38.468Z,2.13
2022-07-29T06:38:25.631Z,2.20
2022-07-29T06:41:07.113Z,2.30
2022-07-29T06:43:42.692Z,2.23
2022-07-29T06:46:21.274Z,2.27
2022-07-29T06:48:49.256Z,2.03
2022-07-29T06:51:22.119Z,2.20
2022-07-29T06:54:00.262Z,2.43
2022-07-29T06:56:38.376Z,1.80
2022-07-29T06:59:09.225Z,2.53
2022-07-29T07:01:41.759Z,2.20
2022-07-29T07:04:10.085Z,2.20
2022-07-29T07:06:38.032Z,3.00
2022-07-29T07:09:06.467Z,2.67
2022-07-29T07:11:34.103Z,2.20
2022-07-29T07:14:03.854Z,2.73
2022-07-29T07:16:32.859Z,2.70
2022-07-29T07:19:00.771Z,2.67
2022-07-29T07:21:30.687Z,2.47
2022-07-29T07:23:59.424Z,3.13
2022-07-29T07:26:26.863Z,2.17
2022-07-29T07:28:54.295Z,3.00
2022-07-29T07:31:21.483Z,2.93
2022-07-29T07:33:49.954Z,2.73
2022-07-29T07:36:17.225Z,2.80
2022-07-29T07:38:44.602Z,2.97
2022-07-29T07:41:12.060Z,3.00
2022-07-29T07:43:41.907Z,3.10
2022-07-29T07:46:09.231Z,3.00
2022-07-29T07:48:37.342Z,2.80
2022-07-29T07:51:04.757Z,2.83
2022-07-29T07:53:31.787Z,2.83
2022-07-29T07:56:10.474Z,2.97
2022-07-29T07:58:38.576Z,2.70
2022-07-29T08:01:08.607Z,2.77
2022-07-29T08:03:36.172Z,2.80
2022-07-29T08:06:04.287Z,2.63
2022-07-29T08:08:32.012Z,3.20
2022-07-29T08:11:02.206Z,3.17
2022-07-29T08:13:33.981Z,3.03
2022-07-29T08:16:12.707Z,3.70
2022-07-29T08:18:42.218Z,4.70
2022-07-29T08:21:09.430Z,4.20
2022-07-29T08:23:47.128Z,4.97
2022-07-29T08:26:16.254Z,5.33
2022-07-29T08:28:49.809Z,5.93
2022-07-29T08:31:18.082Z,5.90
2022-07-29T08:33:45.329Z,6.97
2022-07-29T08:36:14.184Z,6.37
2022-07-29T08:38:41.316Z,5.37
2022-07-29T08:41:08.419Z,5.50
2022-07-29T08:43:38.682Z,5.33
2022-07-29T08:46:06.947Z,5.67
2022-07-29T08:48:34.445Z,5.17
2022-07-29T08:51:02.501Z,5.07
2022-07-29T08:53:31.683Z,6.03
2022-07-29T08:55:59.072Z,7.03
2022-07-29T08:58:27.551Z,5.53
2022-07-29T09:00:58.116Z,6.73
2022-07-29T09:03:31.119Z,5.70
2022-07-29T09:06:00.498Z,5.03
2022-07-29T09:08:27.567Z,4.33
2022-07-29T09:10:57.246Z,3.50
2022-07-29T09:13:24.222Z,3.77
2022-07-29T09:15:51.395Z,3.27
2022-07-29T09:18:38.995Z,3.00
2022-07-29T09:21:26.891Z,3.20
2022-07-29T09:24:14.017Z,3.20
2022-07-29T09:26:42.795Z,2.90
2022-07-29T09:29:21.357Z,2.73
2022-07-29T09:31:50.052Z,2.70
2022-07-29T09:34:28.100Z,3.10
2022-07-29T09:36:56.561Z,3.13
2022-07-29T09:39:46.785Z,2.70
2022-07-29T09:42:16.025Z,2.67
2022-07-29T09:44:44.020Z,2.80
2022-07-29T09:47:13.166Z,2.40
2022-07-29T09:49:59.241Z,3.00
2022-07-29T09:52:32.573Z,2.80
2022-07-29T09:55:18.220Z,2.40
2022-07-29T09:57:47.446Z,2.40
2022-07-29T10:00:18.673Z,2.50
2022-07-29T10:02:47.133Z,2.70
2022-07-29T10:05:25.130Z,3.13
2022-07-29T10:07:57.786Z,2.63
2022-07-29T10:10:27.413Z,2.40
2022-07-29T10:13:04.542Z,2.73
2022-07-29T10:15:39.494Z,2.30
2022-07-29T10:18:07.835Z,2.73
2022-07-29T10:20:35.578Z,2.37
2022-07-29T10:23:04.051Z,2.40
2022-07-29T10:25:31.858Z,2.83
2022-07-29T10:27:59.815Z,2.70
2022-07-29T10:30:27.606Z,2.90
2022-07-29T10:33:19.548Z,2.90
2022-07-29T10:36:09.355Z,2.83
2022-07-29T10:39:07.313Z,2.80
2022-07-29T10:41:53.969Z,2.70
2022-07-29T10:44:26.412Z,2.83
2022-07-29T10:46:55.158Z,3.33
2022-07-29T10:49:27.934Z,3.20
2022-07-29T10:52:10.468Z,2.67
2022-07-29T10:54:53.625Z,2.87
2022-07-29T10:57:52.634Z,2.97
2022-07-29T11:00:14.177Z,2.80
2022-07-29T11:02:47.254Z,2.70
2022-07-29T11:05:22.220Z,2.90
2022-07-29T11:08:20.350Z,2.73
2022-07-29T11:11:35.059Z,2.60
2022-07-29T11:14:04.794Z,2.40
2022-07-29T11:17:06.435Z,2.00
2022-07-29T11:19:35.859Z,2.77
2022-07-29T11:22:03.286Z,2.80
2022-07-29T11:24:35.736Z,2.33
2022-07-29T11:27:21.968Z,2.20
2022-07-29T11:29:52.081Z,2.97
2022-07-29T11:32:23.308Z,2.40
2022-07-29T11:35:38.280Z,2.87
2022-07-29T11:38:31.809Z,2.10
2022-07-29T11:41:19.028Z,2.50
2022-07-29T11:43:54.861Z,2.50
2022-07-29T11:46:49.890Z,2.70
2022-07-29T11:52:15.333Z,2.30
2022-07-29T11:54:57.216Z,2.20
2022-07-29T12:00:46.655Z,2.50
2022-07-29T12:03:33.397Z,2.40
2022-07-29T12:06:13.351Z,2.00
2022-07-29T12:07:03.951Z,3.10
2022-07-29T12:08:44.623Z,2.00
2022-07-29T12:11:23.084Z,2.10
2022-07-29T12:13:52.275Z,2.50
2022-07-29T12:16:25.088Z,1.87
2022-07-29T12:19:02.407Z,2.37
2022-07-29T12:21:56.260Z,2.40
2022-07-29T12:24:26.789Z,3.43
2022-07-29T12:26:59.828Z,2.17
2022-07-29T12:29:35.075Z,2.27
2022-07-29T12:32:04.799Z,2.47
2022-07-29T12:34:33.085Z,1.93
2022-07-29T12:37:00.583Z,2.47
2022-07-29T12:39:29.048Z,2.23
2022-07-29T12:42:04.091Z,2.03
2022-07-29T12:44:51.492Z,1.83
2022-07-29T12:47:19.911Z,2.60
2022-07-29T12:49:48.028Z,1.70
2022-07-29T12:52:44.978Z,1.70
2022-07-29T12:55:12.799Z,2.23
2022-07-29T12:57:51.982Z,2.47
2022-07-29T13:00:30.413Z,2.40
2022-07-29T13:03:23.605Z,1.60
2022-07-29T13:05:52.394Z,1.90
2022-07-29T13:08:22.307Z,2.30
2022-07-29T13:10:50.227Z,2.00
2022-07-29T13:13:17.418Z,2.37
2022-07-29T13:15:47.919Z,2.57
2022-07-29T13:18:47.415Z,2.40
2022-07-29T13:21:19.330Z,2.20
2022-07-29T13:23:46.945Z,2.43
2022-07-29T13:26:15.189Z,2.40
2022-07-29T13:28:44.184Z,2.87
2022-07-29T13:31:14.286Z,2.73
2022-07-29T13:33:44.944Z,2.73
2022-07-29T13:36:11.948Z,3.03
2022-07-29T13:38:39.066Z,2.87
2022-07-29T13:41:07.084Z,3.80
2022-07-29T13:43:34.175Z,3.23
2022-07-29T13:46:01.588Z,2.93
2022-07-29T13:48:28.797Z,2.80
2022-07-29T13:50:55.839Z,2.60
2022-07-29T13:53:26.979Z,2.90
2022-07-29T13:55:56.182Z,2.97
2022-07-29T13:58:23.269Z,2.63
2022-07-29T14:00:50.932Z,4.17
2022-07-29T14:03:18.097Z,3.30
2022-07-29T14:05:45.304Z,2.80
2022-07-29T14:08:12.433Z,2.70
2022-07-29T14:10:39.475Z,2.60
2022-07-29T14:13:06.480Z,3.20
2022-07-29T14:15:51.731Z,2.83
2022-07-29T14:18:18.911Z,3.17
2022-07-29T14:20:46.011Z,2.70
2022-07-29T14:23:13.075Z,3.50
2022-07-29T14:25:43.522Z,2.73
2022-07-29T14:28:11.626Z,2.60
2022-07-29T14:30:43.719Z,3.13
2022-07-29T14:33:11.522Z,3.17
2022-07-29T14:35:38.655Z,3.93
2022-07-29T14:38:07.135Z,4.77
2022-07-29T14:40:34.278Z,3.47
2022-07-29T14:43:01.286Z,3.37
2022-07-29T14:45:29.330Z,3.10
2022-07-29T14:47:57.520Z,3.60
2022-07-29T14:50:31.471Z,3.17
2022-07-29T14:53:02.657Z,2.77
2022-07-29T14:55:30.079Z,2.90
2022-07-29T14:58:07.720Z,2.83
2022-07-29T15:00:37.943Z,2.43
2022-07-29T15:03:06.352Z,2.80
2022-07-29T15:05:33.714Z,2.50
2022-07-29T15:08:00.969Z,2.53
2022-07-29T15:10:29.001Z,2.50
2022-07-29T15:12:57.261Z,1.80
2022-07-29T15:15:27.162Z,2.07
2022-07-29T15:17:56.515Z,2.60
2022-07-29T15:20:27.120Z,2.10
2022-07-29T15:22:56.513Z,2.13
2022-07-29T15:25:24.352Z,2.07
2022-07-29T15:27:53.984Z,2.10
2022-07-29T15:30:33.466Z,2.27
2022-07-29T15:33:03.282Z,2.43
2022-07-29T15:35:30.391Z,1.93
2022-07-29T15:37:58.081Z,2.70
2022-07-29T15:40:25.108Z,2.40
2022-07-29T15:42:52.328Z,2.37
2022-07-29T15:45:19.394Z,2.17
2022-07-29T15:47:47.222Z,2.63
2022-07-29T15:50:17.040Z,2.23
2022-07-29T15:52:44.106Z,2.00
2022-07-29T15:55:14.209Z,2.03
2022-07-29T15:57:41.090Z,2.17
2022-07-29T16:00:08.822Z,2.90
2022-07-29T16:02:36.081Z,2.27
2022-07-29T16:05:03.135Z,1.90
2022-07-29T16:07:31.461Z,1.80
2022-07-29T16:10:01.183Z,2.57
2022-07-29T16:12:28.127Z,2.47
2022-07-29T16:14:55.243Z,2.70
2022-07-29T16:17:23.782Z,2.13
2022-07-29T16:19:50.749Z,1.97
2022-07-29T16:22:17.801Z,2.03
2022-07-29T16:24:44.808Z,2.40
2022-07-29T16:27:11.941Z,2.57
2022-07-29T16:29:39.656Z,2.20
2022-07-29T16:32:07.039Z,3.30
2022-07-29T16:34:34.295Z,1.83
2022-07-29T16:37:01.639Z,2.10
2022-07-29T16:39:29.039Z,2.80
2022-07-29T16:42:00.290Z,1.90
2022-07-29T16:44:29.146Z,1.80
2022-07-29T16:46:58.022Z,2.73
2022-07-29T16:49:27.351Z,1.90
2022-07-29T16:51:54.687Z,2.57
2022-07-29T16:54:21.649Z,2.10
2022-07-29T16:56:48.627Z,2.67
2022-07-29T16:59:15.673Z,1.97
2022-07-29T17:01:42.924Z,1.83
2022-07-29T17:04:12.098Z,2.00
2022-07-29T17:06:40.760Z,2.50
2022-07-29T17:09:09.511Z,2.10
2022-07-29T17:11:53.765Z,2.13
2022-07-29T17:14:25.378Z,2.80
2022-07-29T17:17:03.217Z,1.83
2022-07-29T17:19:33.820Z,1.80
2022-07-29T17:22:11.778Z,1.93
2022-07-29T17:24:41.918Z,2.07
2022-07-29T17:27:10.350Z,2.10
2022-07-29T17:29:39.077Z,2.03
2022-07-29T17:32:07.658Z,2.40
2022-07-29T17:34:40.252Z,2.30
2022-07-29T17:37:09.544Z,2.37
2022-07-29T17:39:41.303Z,2.40
2022-07-29T17:42:10.083Z,2.20
2022-07-29T17:44:37.611Z,2.07
2022-07-29T17:47:16.507Z,2.00
2022-07-29T17:49:45.655Z,3.10
2022-07-29T17:52:13.845Z,2.47
2022-07-29T17:54:41.002Z,2.30
2022-07-29T17:57:08.235Z,2.10
2022-07-29T17:59:45.977Z,2.07
2022-07-29T18:02:14.471Z,2.17
2022-07-29T18:04:41.552Z,2.50
2022-07-29T18:07:10.601Z,2.10
2022-07-29T18:09:37.748Z,2.43
2022-07-29T18:12:05.795Z,2.27
2022-07-29T18:14:33.736Z,2.27
2022-07-29T18:17:01.237Z,2.40
2022-07-29T18:19:29.749Z,2.57
2022-07-29T18:21:59.321Z,2.20
2022-07-29T18:24:32.122Z,2.73
2022-07-29T18:26:59.604Z,2.47
2022-07-29T18:29:29.018Z,2.33
2022-07-29T18:31:56.567Z,2.67
2022-07-29T18:34:27.239Z,2.77
2022-07-29T18:36:54.571Z,2.47
2022-07-29T18:39:21.628Z,2.40
2022-07-29T18:41:51.519Z,2.33
2022-07-29T18:44:22.652Z,2.60
2022-07-29T18:46:51.406Z,2.63
2022-07-29T18:49:19.116Z,2.43
2022-07-29T18:51:46.259Z,2.30
2022-07-29T18:54:13.281Z,2.87
2022-07-29T18:56:40.469Z,2.90
2022-07-29T18:59:07.438Z,2.63
2022-07-29T19:01:34.590Z,3.00
2022-07-29T19:04:01.887Z,3.13
2022-07-29T19:06:29.161Z,3.03
2022-07-29T19:08:58.609Z,2.57
2022-07-29T19:11:25.884Z,3.30
2022-07-29T19:13:52.824Z,2.80
2022-07-29T19:16:19.803Z,3.00
2022-07-29T19:18:47.474Z,2.60
2022-07-29T19:21:19.695Z,3.20
2022-07-29T19:24:05.964Z,2.80
2022-07-29T19:26:42.866Z,2.80
2022-07-29T19:29:11.417Z,3.13
2022-07-29T19:31:40.765Z,3.13
2022-07-29T19:34:10.628Z,3.00
2022-07-29T19:36:38.807Z,3.63
2022-07-29T19:39:05.950Z,3.40
2022-07-29T19:41:39.750Z,3.13
2022-07-29T19:44:06.910Z,3.50
2022-07-29T19:46:35.214Z,3.90
2022-07-29T19:49:07.122Z,3.90
2022-07-29T19:51:34.880Z,3.13
2022-07-29T19:54:20.829Z,3.37
2022-07-29T19:56:48.509Z,3.50
2022-07-29T19:59:16.808Z,3.63
2022-07-29T20:01:44.415Z,3.37
2022-07-29T20:04:14.206Z,3.40
2022-07-29T20:06:45.350Z,3.50
2022-07-29T20:09:16.761Z,3.50
2022-07-29T20:11:48.263Z,3.37
2022-07-29T20:14:15.897Z,3.77
2022-07-29T20:16:43.366Z,3.90
2022-07-29T20:19:13.744Z,4.40
2022-07-29T20:21:41.340Z,3.80
2022-07-29T20:24:11.761Z,3.80
2022-07-29T20:26:39.356Z,4.00
2022-07-29T20:29:07.307Z,4.37
2022-07-29T20:31:35.528Z,3.53
2022-07-29T20:34:05.648Z,3.90
2022-07-29T20:36:35.177Z,3.87
2022-07-29T20:39:02.242Z,3.97
2022-07-29T20:41:29.335Z,4.77
2022-07-29T20:43:56.476Z,4.00
2022-07-29T20:46:23.857Z,4.30
2022-07-29T20:48:50.996Z,4.30
2022-07-29T20:51:20.524Z,4.20
2022-07-29T20:53:50.535Z,4.00
2022-07-29T20:56:17.794Z,3.77
2022-07-29T20:58:46.175Z,4.40
2022-07-29T21:01:13.313Z,4.00
2022-07-29T21:03:40.457Z,3.90
2022-07-29T21:06:09.175Z,3.80
2022-07-29T21:08:36.256Z,3.80
2022-07-29T21:11:03.706Z,4.50
2022-07-29T21:13:31.041Z,3.87
2022-07-29T21:16:02.013Z,3.90
2022-07-29T21:18:32.459Z,3.37
2022-07-29T21:21:04.554Z,5.00
2022-07-29T21:23:31.665Z,3.47
2022-07-29T21:25:58.602Z,4.30
2022-07-29T21:28:41.369Z,3.70
2022-07-29T21:31:13.947Z,3.47
2022-07-29T21:33:43.303Z,4.60
2022-07-29T21:36:42.809Z,3.43
2022-07-29T21:38:57.382Z,3.50
2022-07-29T21:41:24.208Z,3.20
2022-07-29T21:43:52.075Z,3.50
2022-07-29T21:46:22.217Z,3.10
2022-07-29T21:48:51.638Z,3.20
2022-07-29T21:51:18.476Z,3.43
2022-07-29T21:53:45.318Z,3.37
2022-07-29T21:56:14.950Z,3.13
2022-07-29T21:58:41.963Z,3.00
2022-07-29T22:01:11.111Z,3.37
2022-07-29T22:03:40.871Z,3.10
2022-07-29T22:06:17.836Z,3.00
2022-07-29T22:08:45.668Z,3.27
2022-07-29T22:11:12.977Z,3.40
2022-07-29T22:13:39.863Z,3.30
2022-07-29T22:32:01.587Z,3.30
2022-07-29T22:34:49.211Z,3.57
2022-07-29T22:37:36.832Z,3.40
2022-07-29T22:40:24.149Z,3.47
2022-07-29T22:43:18.099Z,3.43
2022-07-29T22:46:05.525Z,3.33
2022-07-29T22:48:52.875Z,3.30
2022-07-29T22:51:40.130Z,3.63
2022-07-29T22:54:27.504Z,3.23
2022-07-29T22:57:14.802Z,2.77
2022-07-29T23:00:02.486Z,3.10
2022-07-29T23:02:49.887Z,2.90
2022-07-29T23:05:37.049Z,3.50
2022-07-29T23:08:24.218Z,3.40
2022-07-29T23:11:11.705Z,3.63
2022-07-29T23:13:58.963Z,3.30
2022-07-29T23:16:46.466Z,3.70
2022-07-29T23:19:33.811Z,3.00
2022-07-29T23:22:21.010Z,3.23
2022-07-29T23:25:08.665Z,3.27
2022-07-29T23:27:55.883Z,3.47
2022-07-29T23:30:43.402Z,4.40
2022-07-29T23:33:31.709Z,4.47
2022-07-29T23:36:21.099Z,3.47
2022-07-29T23:39:13.536Z,3.20
2022-07-29T23:42:01.973Z,3.30
2022-07-29T23:44:50.152Z,3.60
2022-07-29T23:47:37.841Z,3.40
2022-07-29T23:50:25.852Z,3.67
2022-07-29T23:53:14.693Z,3.30
2022-07-29T23:56:03.210Z,3.27
2022-07-29T23:58:50.997Z,4.90
